Time;durP1;ratioP1;P1;durP2;ratioP2;P2;SDS_P1;SDS_P2;PMS_P1;PMS_P2;Temp;Humidity;BMP_temperature;BMP_pressure;BME280_temperature;BME280_humidity;BME280_pressure;Samples;Min_cycle;Max_cycle;Signal;HPM_P1;HPM_P2
2022/06/06 00:00:43;;;;;;;;;10.75;7.00;;;;;17.29;71.63;100920.09;4993792;28;46179;-78
2022/06/06 00:03:09;;;;;;;;;8.00;8.00;;;;;17.28;71.81;100924.59;4992833;28;45420;-77
2022/06/06 00:05:36;;;;;;;;;10.00;9.00;;;;;17.21;71.75;100913.28;4994727;28;45447;-77
2022/06/06 00:08:03;;;;;;;;;10.00;9.00;;;;;17.22;71.10;100920.34;4996999;28;45661;-77
2022/06/06 00:10:29;;;;;;;;;5.25;5.25;;;;;17.22;70.84;100911.50;5014302;28;46145;-78
2022/06/06 00:12:54;;;;;;;;;4.00;4.00;;;;;17.13;70.11;100912.75;5014009;28;45383;-78
2022/06/06 00:15:19;;;;;;;;;3.00;3.00;;;;;17.13;70.09;100915.41;5014383;28;45324;-76
2022/06/06 00:17:44;;;;;;;;;7.00;6.00;;;;;17.02;69.97;100909.63;5014606;28;45437;-78
2022/06/06 00:20:10;;;;;;;;;4.50;4.00;;;;;17.04;70.04;100913.97;4995896;28;45376;-78
2022/06/06 00:22:36;;;;;;;;;5.00;5.00;;;;;17.03;69.73;100922.06;4998521;28;45349;-78
2022/06/06 00:25:01;;;;;;;;;4.50;4.00;;;;;16.98;69.82;100926.72;4997877;28;45436;-77
2022/06/06 00:27:26;;;;;;;;;4.00;4.00;;;;;16.94;69.70;100919.78;4994173;28;45385;-78
2022/06/06 00:29:53;;;;;;;;;1.25;1.25;;;;;16.93;69.74;100918.91;4993992;28;51340;-79
2022/06/06 00:35:05;;;;;;;;;2.50;2.50;;;;;16.92;70.00;100921.66;4997569;28;45482;-77
2022/06/06 00:37:34;;;;;;;;;10.50;7.00;;;;;16.88;70.07;100920.88;4997280;28;45412;-77
2022/06/06 00:40:01;;;;;;;;;5.75;5.50;;;;;16.83;70.46;100917.50;4996896;28;45398;-77
2022/06/06 00:42:32;;;;;;;;;1.50;1.50;;;;;16.80;70.40;100912.31;5007887;28;45381;-77
2022/06/06 00:45:17;;;;;;;;;5.00;3.00;;;;;16.78;70.53;100907.03;5017320;28;45439;-77
2022/06/06 00:47:44;;;;;;;;;6.00;5.00;;;;;16.73;70.55;100900.97;5013915;28;45459;-78
2022/06/06 00:50:15;;;;;;;;;3.50;3.50;;;;;16.70;70.31;100898.44;5003772;28;46115;-78
2022/06/06 00:52:43;;;;;;;;;3.50;3.50;;;;;16.67;70.45;100901.22;5016525;28;45495;-78
2022/06/06 00:55:21;;;;;;;;;3.00;3.00;;;;;16.64;70.64;100896.91;5018787;28;45364;-77
2022/06/06 00:57:52;;;;;;;;;5.50;2.50;;;;;16.66;70.43;100900.38;5017040;28;45628;-78
2022/06/06 01:00:19;;;;;;;;;6.75;6.75;;;;;16.64;71.04;100904.91;5015507;28;47128;-77
2022/06/06 01:02:48;;;;;;;;;7.75;6.00;;;;;16.64;71.27;100906.69;5016143;28;45358;-77
2022/06/06 01:05:15;;;;;;;;;5.50;4.00;;;;;16.62;71.82;100895.22;5016233;28;45412;-77
2022/06/06 01:07:41;;;;;;;;;8.00;8.00;;;;;16.66;72.02;100902.19;5016626;28;45528;-78
2022/06/06 01:10:07;;;;;;;;;8.00;6.00;;;;;16.65;72.22;100887.94;5019577;28;45843;-78
2022/06/06 01:12:33;;;;;;;;;6.75;6.75;;;;;16.65;72.21;100903.09;5036105;28;45382;-78
2022/06/06 01:15:04;;;;;;;;;5.25;5.25;;;;;16.61;72.06;100889.03;5036896;28;45380;-77
2022/06/06 01:17:57;;;;;;;;;5.75;5.75;;;;;16.63;72.24;100892.50;5036714;28;45478;-78
2022/06/06 01:20:28;;;;;;;;;4.00;4.00;;;;;16.62;72.61;100896.09;5033705;28;45502;-78
2022/06/06 01:23:20;;;;;;;;;9.00;6.75;;;;;16.59;72.40;100890.88;5013722;28;45612;-78
2022/06/06 01:26:16;;;;;;;;;5.75;5.75;;;;;16.56;72.43;100884.81;5016605;28;45483;-78
2022/06/06 01:29:02;;;;;;;;;11.25;7.25;;;;;16.54;72.85;100879.53;5016299;28;45414;-77
2022/06/06 01:31:44;;;;;;;;;7.00;6.00;;;;;16.51;72.50;100879.66;5011929;28;45628;-77
2022/06/06 01:34:12;;;;;;;;;7.50;7.50;;;;;16.50;72.55;100878.78;5016636;28;45539;-76
2022/06/06 01:36:40;;;;;;;;;8.00;8.00;;;;;16.53;72.84;100885.78;5014771;28;45609;-79
2022/06/06 01:39:09;;;;;;;;;5.00;3.50;;;;;16.46;72.90;100876.31;5016137;28;45434;-78
2022/06/06 01:41:56;;;;;;;;;6.25;6.25;;;;;16.50;72.89;100884.13;5014847;28;46590;-79
2022/06/06 01:44:34;;;;;;;;;8.00;8.00;;;;;16.48;73.12;100875.31;5016405;28;45446;-77
2022/06/06 01:47:03;;;;;;;;;4.00;2.50;;;;;16.43;72.54;100869.28;5015375;28;45396;-78
2022/06/06 01:49:32;;;;;;;;;6.00;6.00;;;;;16.49;72.51;100889.53;5007484;28;45602;-78
2022/06/06 01:52:07;;;;;;;;;2.75;2.75;;;;;16.47;72.60;100883.38;5020419;28;45611;-77
2022/06/06 01:54:33;;;;;;;;;5.00;5.00;;;;;16.46;72.00;100882.50;5011091;28;45487;-78
2022/06/06 01:57:01;;;;;;;;;9.00;5.00;;;;;16.46;71.64;100877.16;4996562;28;45393;-78
2022/06/06 01:59:27;;;;;;;;;3.50;3.50;;;;;16.46;71.07;100878.97;5003877;28;45541;-78
2022/06/06 02:01:53;;;;;;;;;5.00;5.00;;;;;16.37;71.00;100850.88;5014096;28;46300;-78
2022/06/06 02:04:19;;;;;;;;;3.25;2.50;;;;;16.45;70.68;100872.75;5015588;28;45581;-78
2022/06/06 02:06:44;;;;;;;;;6.00;5.75;;;;;16.45;70.43;100870.09;5015651;28;45447;-78
2022/06/06 02:09:10;;;;;;;;;3.50;3.50;;;;;16.45;70.81;100875.41;5015621;28;45443;-77
2022/06/06 02:11:35;;;;;;;;;4.00;3.00;;;;;16.44;70.06;100873.72;5014795;28;45478;-78
2022/06/06 02:14:00;;;;;;;;;4.00;1.00;;;;;16.41;70.10;100865.78;5015575;28;45419;-76
2022/06/06 02:16:26;;;;;;;;;4.00;4.00;;;;;16.43;70.21;100881.78;5013822;28;45474;-79
2022/06/06 02:18:51;;;;;;;;;6.00;5.25;;;;;16.42;69.87;100878.22;5019650;28;45509;-77
2022/06/06 02:21:16;;;;;;;;;4.50;4.50;;;;;16.31;69.25;100859.09;5014333;28;46364;-76
2022/06/06 02:23:43;;;;;;;;;4.50;3.00;;;;;16.34;69.06;100880.31;5016019;28;45475;-78
2022/06/06 02:26:09;;;;;;;;;2.00;2.00;;;;;16.31;68.77;100875.13;5015973;28;45439;-77
2022/06/06 02:28:36;;;;;;;;;2.50;2.50;;;;;16.27;68.10;100873.47;5015430;28;45433;-77
2022/06/06 02:31:02;;;;;;;;;4.75;3.25;;;;;16.24;68.50;100876.28;5022314;28;45327;-78
2022/06/06 02:33:27;;;;;;;;;3.00;3.00;;;;;16.25;69.00;100873.53;5015800;28;45364;-77
2022/06/06 02:35:53;;;;;;;;;2.25;2.25;;;;;16.26;68.88;100874.41;5015771;28;45660;-77
2022/06/06 02:38:19;;;;;;;;;3.50;3.50;;;;;16.23;68.78;100870.09;5016211;28;45411;-78
2022/06/06 02:40:45;;;;;;;;;5.00;3.00;;;;;16.20;68.45;100863.97;5013834;28;47061;-79
2022/06/06 02:43:11;;;;;;;;;3.00;3.00;;;;;16.20;68.95;100874.63;5015339;28;45499;-77
2022/06/06 02:45:37;;;;;;;;;5.00;4.50;;;;;16.17;69.32;100875.66;5016092;28;45486;-77
2022/06/06 02:48:02;;;;;;;;;3.50;2.00;;;;;16.14;69.12;100865.97;5021011;28;45502;-77
2022/06/06 02:50:31;;;;;;;;;5.50;3.50;;;;;16.15;68.57;100878.38;5019431;28;45530;-78
2022/06/06 02:52:58;;;;;;;;;4.00;4.00;;;;;16.10;68.60;100867.00;5025376;28;45576;-78
2022/06/06 02:55:24;;;;;;;;;2.75;2.75;;;;;16.03;68.10;100867.28;5034113;28;45430;-77
2022/06/06 02:57:51;;;;;;;;;3.00;3.00;;;;;16.04;68.70;100869.91;5014867;28;45445;-78
2022/06/06 03:00:20;;;;;;;;;6.25;2.75;;;;;16.01;68.51;100867.34;5013468;28;46189;-77
2022/06/06 03:02:46;;;;;;;;;4.50;3.00;;;;;15.95;68.82;100857.78;4994261;28;45490;-77
2022/06/06 03:05:12;;;;;;;;;4.00;4.00;;;;;15.91;68.25;100860.63;4994875;28;45377;-78
2022/06/06 03:08:05;;;;;;;;;4.50;4.50;;;;;15.92;68.57;100865.03;4995875;28;45387;-78
2022/06/06 03:11:02;;;;;;;;;4.50;2.75;;;;;15.89;68.90;100867.81;4996805;28;45545;-78
2022/06/06 03:13:54;;;;;;;;;2.25;2.25;;;;;15.85;68.83;100869.75;5013698;28;45469;-78
2022/06/06 03:22:45;;;;;;;;;6.00;5.00;;;;;15.73;69.24;100879.03;5014754;28;45394;-79
2022/06/06 03:25:28;;;;;;;;;4.75;3.50;;;;;15.68;69.05;100870.31;5013772;28;45360;-77
2022/06/06 03:28:14;;;;;;;;;1.00;1.00;;;;;15.65;69.28;100881.09;5002202;28;45527;-76
2022/06/06 03:31:12;;;;;;;;;3.75;2.00;;;;;15.64;69.38;100890.03;4994589;28;45475;-77
2022/06/06 03:33:52;;;;;;;;;2.75;2.75;;;;;15.58;69.09;100882.25;4994305;28;45459;-77
2022/06/06 03:36:30;;;;;;;;;3.50;2.00;;;;;15.58;69.82;100884.91;4994707;28;45503;-78
2022/06/06 03:38:58;;;;;;;;;7.00;2.75;;;;;15.53;69.12;100884.19;4994828;28;45479;-78
2022/06/06 03:41:42;;;;;;;;;2.00;2.00;;;;;15.51;69.68;100881.59;4994959;28;45434;-78
2022/06/06 03:44:16;;;;;;;;;5.00;1.00;;;;;15.46;69.23;100884.41;4994953;28;45599;-77
2022/06/06 03:46:47;;;;;;;;;2.75;2.75;;;;;15.46;69.46;100888.88;4999587;28;45486;-79
2022/06/06 03:49:31;;;;;;;;;4.00;4.00;;;;;15.44;69.83;100883.59;4996987;28;45412;-78
2022/06/06 03:52:04;;;;;;;;;3.00;3.00;;;;;15.40;69.48;100883.78;4994915;28;45491;-76
2022/06/06 03:55:07;;;;;;;;;2.50;2.50;;;;;15.42;69.83;100885.44;5004148;28;46275;-77
2022/06/06 03:57:35;;;;;;;;;2.75;2.75;;;;;15.39;69.26;100885.53;5010343;28;45515;-77
2022/06/06 04:00:11;;;;;;;;;4.75;2.50;;;;;15.38;69.12;100886.50;5014189;28;45346;-78
2022/06/06 04:02:38;;;;;;;;;4.25;4.25;;;;;15.37;69.22;100891.88;5013459;28;45439;-78
2022/06/06 04:05:07;;;;;;;;;3.50;1.75;;;;;15.38;69.67;100890.91;4998972;28;45373;-77
2022/06/06 04:07:33;;;;;;;;;3.25;2.25;;;;;15.39;69.79;100903.31;4996910;28;45379;-77
2022/06/06 04:09:59;;;;;;;;;3.50;3.50;;;;;15.42;69.03;100903.22;4997866;28;45380;-78
2022/06/06 04:13:02;;;;;;;;;3.00;3.00;;;;;15.48;69.19;100907.47;4998635;28;45468;-78
2022/06/06 04:15:51;;;;;;;;;2.00;2.00;;;;;15.50;69.04;100908.28;5006915;28;45463;-79
2022/06/06 04:18:38;;;;;;;;;2.00;2.00;;;;;15.55;69.07;100911.66;5019454;28;45685;-77
2022/06/06 04:21:22;;;;;;;;;4.00;2.00;;;;;15.59;68.93;100899.94;5016458;28;45578;-78
2022/06/06 04:24:06;;;;;;;;;2.00;2.00;;;;;15.73;67.92;100911.00;5017513;28;45468;-78
2022/06/06 04:27:07;;;;;;;;;2.00;2.00;;;;;15.80;67.75;100909.00;5009182;28;46481;-78
2022/06/06 04:29:49;;;;;;;;;2.50;2.00;;;;;15.75;67.12;100898.47;4995499;28;45512;-78
2022/06/06 04:32:35;;;;;;;;;0.25;0.00;;;;;15.84;66.35;100909.78;5019314;28;45506;-78
2022/06/06 04:35:18;;;;;;;;;2.50;2.50;;;;;15.85;66.54;100907.06;5037031;28;45599;-78
2022/06/06 04:37:51;;;;;;;;;3.50;3.50;;;;;15.84;65.97;100896.47;5012001;28;46059;-78
2022/06/06 04:40:17;;;;;;;;;2.25;1.00;;;;;15.86;65.73;100899.91;5017002;28;45366;-78
2022/06/06 04:43:02;;;;;;;;;1.75;1.75;;;;;15.89;65.46;100902.47;5016784;28;45362;-78
2022/06/06 04:45:38;;;;;;;;;0.25;0.25;;;;;15.91;64.75;100905.94;5021011;28;45712;-78
2022/06/06 04:48:05;;;;;;;;;1.75;0.75;;;;;15.95;64.78;100903.09;5023951;28;45356;-77
2022/06/06 04:50:33;;;;;;;;;1.00;1.00;;;;;16.01;64.89;100896.69;5036381;28;45459;-77
2022/06/06 04:53:06;;;;;;;;;0.00;0.00;;;;;16.11;63.95;100898.06;5019790;28;45507;-76
2022/06/06 04:55:33;;;;;;;;;1.50;1.00;;;;;16.21;65.57;100898.59;5031112;28;45470;-77
2022/06/06 04:58:02;;;;;;;;;1.00;0.00;;;;;16.27;63.76;100898.34;5026782;28;46570;-78
2022/06/06 05:00:30;;;;;;;;;1.25;0.75;;;;;16.28;63.55;100900.09;5016228;28;45388;-78
2022/06/06 05:02:55;;;;;;;;;0.00;0.00;;;;;16.35;62.73;100898.03;5015739;28;45400;-78
2022/06/06 05:05:26;;;;;;;;;0.00;0.00;;;;;16.52;62.53;100905.41;5014624;28;45605;-78
2022/06/06 05:08:07;;;;;;;;;0.00;0.00;;;;;16.69;61.70;100904.72;5014736;28;46195;-77
2022/06/06 05:11:11;;;;;;;;;0.00;0.00;;;;;17.17;60.94;100901.00;5036826;28;45402;-77
2022/06/06 05:13:44;;;;;;;;;0.00;0.00;;;;;17.36;59.56;100895.72;5033880;28;45430;-79
2022/06/06 05:16:31;;;;;;;;;0.50;0.50;;;;;17.46;58.73;100892.66;5010902;28;45456;-79
2022/06/06 05:19:17;;;;;;;;;0.00;0.00;;;;;17.61;59.01;100889.28;5015312;28;45491;-77
2022/06/06 05:21:51;;;;;;;;;0.50;0.00;;;;;18.23;58.23;100898.09;5015941;28;45645;-77
2022/06/06 05:24:28;;;;;;;;;0.75;0.75;;;;;19.33;54.61;100906.19;5016278;28;45375;-78
2022/06/06 05:27:01;;;;;;;;;0.25;0.25;;;;;20.36;52.09;100898.00;5012312;28;45700;-78
2022/06/06 05:29:41;;;;;;;;;0.00;0.00;;;;;21.39;50.33;100903.75;5015075;28;46639;-77
2022/06/06 05:32:29;;;;;;;;;1.25;0.00;;;;;22.43;47.41;100899.16;5014806;28;45468;-78
2022/06/06 05:35:18;;;;;;;;;1.25;0.50;;;;;23.40;45.80;100897.25;4995781;28;45361;-77
2022/06/06 05:37:44;;;;;;;;;1.25;0.00;;;;;23.95;43.77;100897.94;5011385;28;45399;-77
2022/06/06 05:40:30;;;;;;;;;0.00;0.00;;;;;24.47;42.41;100901.38;5014301;28;45407;-78
2022/06/06 05:43:20;;;;;;;;;0.00;0.00;;;;;24.93;40.99;100891.72;5017306;28;45474;-77
2022/06/06 05:46:11;;;;;;;;;1.00;0.00;;;;;25.31;39.92;100888.84;5019924;28;45454;-78
2022/06/06 05:48:43;;;;;;;;;0.00;0.00;;;;;25.94;39.42;100882.16;5009587;28;45393;-77
2022/06/06 05:51:40;;;;;;;;;0.00;0.00;;;;;26.64;38.23;100883.69;5035247;28;46386;-78
2022/06/06 05:54:15;;;;;;;;;0.00;0.00;;;;;27.13;36.64;100890.44;5004090;28;45522;-78
2022/06/06 05:57:01;;;;;;;;;0.00;0.00;;;;;27.71;36.03;100897.28;5006128;28;45360;-77
2022/06/06 05:59:46;;;;;;;;;0.25;0.25;;;;;28.39;35.02;100885.84;5006419;28;45439;-77
2022/06/06 06:02:44;;;;;;;;;0.50;0.00;;;;;28.92;34.34;100890.09;4994796;28;45424;-79
2022/06/06 06:05:37;;;;;;;;;0.00;0.00;;;;;29.13;34.08;100889.97;5004834;28;45572;-80
2022/06/06 06:08:21;;;;;;;;;1.00;0.00;;;;;29.39;32.97;100897.56;5017034;28;45600;-79
2022/06/06 06:11:27;;;;;;;;;0.00;0.00;;;;;29.87;32.11;100898.47;5018368;28;45327;-78
2022/06/06 06:14:09;;;;;;;;;0.00;0.00;;;;;30.28;31.98;100894.41;5006769;28;45289;-78
2022/06/06 06:16:41;;;;;;;;;0.00;0.00;;;;;30.65;30.82;100903.53;4999281;28;45498;-76
2022/06/06 06:19:14;;;;;;;;;0.00;0.00;;;;;31.10;31.44;100899.09;5014752;28;45452;-77
2022/06/06 06:22:09;;;;;;;;;0.75;0.00;;;;;31.64;30.40;100896.25;5015441;28;45404;-78
2022/06/06 06:24:38;;;;;;;;;0.00;0.00;;;;;31.87;30.57;100904.75;4997152;28;45420;-75
2022/06/06 06:27:05;;;;;;;;;0.00;0.00;;;;;32.00;29.01;100902.44;5001933;28;45419;-75
2022/06/06 06:29:31;;;;;;;;;0.00;0.00;;;;;32.31;28.88;100912.88;5013306;28;45553;-77
2022/06/06 06:32:43;;;;;;;;;0.00;0.00;;;;;32.64;28.96;100912.97;5014466;28;45537;-76
2022/06/06 06:35:20;;;;;;;;;0.00;0.00;;;;;32.74;27.91;100915.59;5011185;28;45505;-78
2022/06/06 06:38:22;;;;;;;;;0.00;0.00;;;;;32.91;28.46;100916.47;5008497;28;45414;-81
2022/06/06 06:41:29;;;;;;;;;0.00;0.00;;;;;33.14;28.11;100918.56;5020652;28;45606;-79
2022/06/06 06:44:07;;;;;;;;;0.00;0.00;;;;;33.51;28.29;100920.81;5014428;28;45448;-78
2022/06/06 06:46:38;;;;;;;;;0.00;0.00;;;;;33.91;27.42;100920.94;4999048;28;45529;-79
2022/06/06 06:49:15;;;;;;;;;0.00;0.00;;;;;34.04;27.23;100918.47;5015889;28;45448;-77
2022/06/06 06:51:58;;;;;;;;;1.00;0.50;;;;;34.31;26.28;100924.56;5020909;28;45502;-79
2022/06/06 06:54:49;;;;;;;;;0.00;0.00;;;;;34.33;26.01;100917.00;5025925;28;45426;-79
2022/06/06 06:57:35;;;;;;;;;0.00;0.00;;;;;34.32;26.27;100921.66;5009259;28;45622;-83
2022/06/06 07:00:15;;;;;;;;;0.00;0.00;;;;;34.51;25.66;100914.00;5017764;28;45424;-82
2022/06/06 07:09:47;;;;;;;;;0.00;0.00;;;;;34.92;25.37;100916.50;5026878;28;45466;-82
2022/06/06 07:12:33;;;;;;;;;0.00;0.00;;;;;34.78;24.81;100920.06;5008815;28;45450;-82
2022/06/06 07:15:11;;;;;;;;;0.00;0.00;;;;;34.91;24.50;100922.19;5013423;28;45458;-81
2022/06/06 07:17:53;;;;;;;;;0.00;0.00;;;;;35.04;24.27;100914.19;5008593;28;45665;-81
2022/06/06 07:20:20;;;;;;;;;0.00;0.00;;;;;35.01;25.02;100911.81;5012976;28;45636;-82
2022/06/06 07:23:00;;;;;;;;;0.00;0.00;;;;;34.69;24.65;100916.47;5016677;28;45348;-80
2022/06/06 07:25:27;;;;;;;;;0.00;0.00;;;;;34.63;25.67;100918.03;5012184;28;45616;-82
2022/06/06 07:27:52;;;;;;;;;0.00;0.00;;;;;34.29;24.95;100911.03;5008363;28;45881;-82
2022/06/06 07:30:21;;;;;;;;;0.00;0.00;;;;;34.50;25.35;100915.91;5023627;28;45470;-82
2022/06/06 07:33:05;;;;;;;;;0.00;0.00;;;;;34.95;25.03;100909.81;5036748;28;45349;-82
2022/06/06 07:35:42;;;;;;;;;0.00;0.00;;;;;34.74;25.24;100908.56;5030459;28;45431;-83
2022/06/06 07:38:33;;;;;;;;;0.00;0.00;;;;;34.37;24.65;100912.88;5011068;28;45485;-82
2022/06/06 07:41:18;;;;;;;;;0.00;0.00;;;;;34.58;24.57;100908.66;5022839;28;45383;-82
2022/06/06 07:44:02;;;;;;;;;0.00;0.00;;;;;34.84;24.38;100909.19;5020106;28;45568;-83
2022/06/06 07:46:46;;;;;;;;;0.00;0.00;;;;;35.31;23.88;100910.06;4998193;28;45407;-81
2022/06/06 07:49:20;;;;;;;;;0.00;0.00;;;;;35.56;24.14;100902.44;5000749;28;45498;-83
2022/06/06 07:52:03;;;;;;;;;0.00;0.00;;;;;35.66;23.83;100901.31;5019867;28;46371;-81
2022/06/06 07:54:57;;;;;;;;;0.00;0.00;;;;;35.70;24.41;100903.50;5032669;28;45474;-82
2022/06/06 07:57:51;;;;;;;;;0.00;0.00;;;;;34.44;24.93;100891.94;5014057;28;45419;-80
2022/06/06 08:00:20;;;;;;;;;0.00;0.00;;;;;33.61;25.75;100905.00;5022463;28;45404;-82
2022/06/06 08:02:55;;;;;;;;;0.00;0.00;;;;;32.82;26.07;100910.13;5019831;28;46459;-81
2022/06/06 08:05:28;;;;;;;;;0.00;0.00;;;;;33.02;26.85;100902.44;5008716;28;45634;-82
2022/06/06 08:07:59;;;;;;;;;0.00;0.00;;;;;32.84;26.07;100899.00;5030057;28;45316;-83
2022/06/06 08:10:42;;;;;;;;;0.00;0.00;;;;;32.88;27.99;100900.41;5025185;28;45300;-82
2022/06/06 08:13:28;;;;;;;;;0.00;0.00;;;;;33.47;26.15;100895.63;5019209;28;45540;-84
2022/06/06 08:16:03;;;;;;;;;0.00;0.00;;;;;32.86;26.62;100905.19;5017962;28;45440;-83
2022/06/06 08:18:43;;;;;;;;;0.00;0.00;;;;;32.81;26.71;100904.81;5016810;28;45623;-74
2022/06/06 08:21:30;;;;;;;;;1.00;0.00;;;;;32.34;27.71;100898.00;5017997;28;45590;-81
2022/06/06 08:24:00;;;;;;;;;0.00;0.00;;;;;32.50;27.09;100892.59;5010318;28;45666;-80
2022/06/06 08:26:27;;;;;;;;;0.00;0.00;;;;;32.27;27.18;100903.28;5024634;28;45418;-77
2022/06/06 08:28:53;;;;;;;;;0.00;0.00;;;;;32.73;25.71;100890.09;5029638;28;45441;-82
2022/06/06 08:31:20;;;;;;;;;0.00;0.00;;;;;33.34;26.14;100894.44;5021931;28;45387;-81
2022/06/06 08:33:47;;;;;;;;;0.00;0.00;;;;;32.99;25.85;100867.22;5015467;28;46415;-81
2022/06/06 08:36:41;;;;;;;;;0.00;0.00;;;;;32.60;25.48;100895.19;5016655;28;45411;-78
2022/06/06 08:39:14;;;;;;;;;0.00;0.00;;;;;32.69;25.95;100887.88;5014274;28;45653;-82
2022/06/06 08:42:12;;;;;;;;;1.00;0.00;;;;;33.06;25.54;100872.88;5032699;28;45248;-81
2022/06/06 08:45:14;;;;;;;;;0.00;0.00;;;;;33.46;23.86;100882.94;5011310;28;46262;-81
2022/06/06 08:47:55;;;;;;;;;0.00;0.00;;;;;33.30;24.68;100885.72;5006861;28;45546;-81
2022/06/06 08:53:22;;;;;;;;;0.00;0.00;;;;;34.07;23.37;100879.72;5010953;28;45567;-81
2022/06/06 08:56:13;;;;;;;;;0.50;0.00;;;;;34.36;23.48;100881.00;5010702;28;45404;-78
2022/06/06 08:59:04;;;;;;;;;0.00;0.00;;;;;34.50;23.17;100880.25;5005584;28;45454;-81
2022/06/06 09:01:51;;;;;;;;;0.00;0.00;;;;;34.51;23.06;100887.44;5006371;28;45518;-81
2022/06/06 09:04:38;;;;;;;;;0.00;0.00;;;;;33.94;24.14;100884.94;5004433;28;45387;-84
2022/06/06 09:07:06;;;;;;;;;0.00;0.00;;;;;33.68;23.98;100885.13;5008995;28;46262;-81
2022/06/06 09:10:19;;;;;;;;;0.00;0.00;;;;;33.98;24.99;100881.66;5011921;28;45399;-82
2022/06/06 09:13:32;;;;;;;;;0.00;0.00;;;;;33.52;24.47;100880.56;5002820;28;45576;-83
2022/06/06 09:16:00;;;;;;;;;0.00;0.00;;;;;33.26;24.40;100892.56;5014796;28;45745;-83
2022/06/06 09:18:47;;;;;;;;;0.00;0.00;;;;;32.89;25.05;100896.66;5019089;28;45568;-82
2022/06/06 09:21:39;;;;;;;;;0.00;0.00;;;;;32.33;25.32;100894.44;5001326;28;45425;-83
2022/06/06 09:24:27;;;;;;;;;0.75;0.00;;;;;31.35;26.36;100895.53;5016856;28;45499;-82
2022/06/06 09:27:16;;;;;;;;;0.00;0.00;;;;;31.62;26.88;100893.69;5029774;28;45614;-79
2022/06/06 09:30:23;;;;;;;;;0.00;0.00;;;;;32.26;25.88;100890.63;5015364;28;45489;-82
2022/06/06 09:33:10;;;;;;;;;1.00;0.00;;;;;32.80;24.01;100886.69;5019437;28;45453;-83
2022/06/06 09:35:50;;;;;;;;;0.00;0.00;;;;;32.51;23.82;100879.75;5021447;28;44878;-84
2022/06/06 09:38:35;;;;;;;;;0.00;0.00;;;;;32.53;24.83;100875.00;5003084;28;45701;-83
2022/06/06 09:41:03;;;;;;;;;0.00;0.00;;;;;32.82;24.49;100888.25;5005288;28;46465;-84
2022/06/06 09:43:50;;;;;;;;;0.00;0.00;;;;;32.96;24.04;100880.41;5013937;28;45650;-82
2022/06/06 09:46:34;;;;;;;;;0.00;0.00;;;;;33.19;23.64;100880.56;5015505;28;45534;-82
2022/06/06 09:49:24;;;;;;;;;0.00;0.00;;;;;32.86;24.95;100881.41;5016203;28;45413;-85
2022/06/06 09:52:08;;;;;;;;;0.00;0.00;;;;;33.46;23.56;100874.72;5016330;28;45541;-83
2022/06/06 10:00:54;;;;;;;;;0.00;0.00;;;;;33.12;24.48;100874.94;5020258;28;45432;-83
2022/06/06 10:04:01;;;;;;;;;0.00;0.00;;;;;33.60;24.07;100866.84;5045187;28;45397;-84
2022/06/06 10:06:32;;;;;;;;;0.00;0.00;;;;;32.83;25.00;100875.41;5051521;28;45322;-83
2022/06/06 10:09:26;;;;;;;;;1.00;0.00;;;;;32.54;23.77;100861.16;5022410;28;45321;-84
2022/06/06 10:12:38;;;;;;;;;0.00;0.00;;;;;32.70;24.97;100884.13;4995881;28;45399;-79
2022/06/06 10:15:49;;;;;;;;;0.00;0.00;;;;;32.03;24.87;100879.41;4995419;28;46005;-79
2022/06/06 10:18:39;;;;;;;;;0.00;0.00;;;;;32.11;25.18;100886.81;4953280;28;45550;-81
2022/06/06 10:21:38;;;;;;;;;0.00;0.00;;;;;32.41;23.98;100875.31;4957266;28;45555;-80
2022/06/06 10:24:09;;;;;;;;;0.00;0.00;;;;;32.78;24.39;100883.28;4973644;28;45413;-80
2022/06/06 10:27:07;;;;;;;;;0.75;0.00;;;;;33.11;24.83;100878.69;4972704;28;45492;-79
2022/06/06 10:30:10;;;;;;;;;1.00;0.00;;;;;32.73;23.79;100876.41;4955754;28;45478;-79
2022/06/06 10:33:20;;;;;;;;;0.00;0.00;;;;;33.06;22.99;100881.94;4973860;28;45518;-81
2022/06/06 10:36:12;;;;;;;;;0.00;0.00;;;;;33.07;23.69;100886.38;4979343;28;45529;-80
2022/06/06 10:38:47;;;;;;;;;0.00;0.00;;;;;32.52;23.96;100889.69;4968770;28;45746;-79
2022/06/06 10:41:15;;;;;;;;;0.00;0.00;;;;;32.09;24.74;100889.69;4955850;28;45528;-79
2022/06/06 10:43:58;;;;;;;;;0.00;0.00;;;;;31.74;24.64;100888.81;4972958;28;45627;-79
2022/06/06 10:46:32;;;;;;;;;0.25;0.00;;;;;31.26;25.08;100887.44;4973911;28;45461;-79
2022/06/06 10:49:00;;;;;;;;;0.00;0.00;;;;;30.73;25.92;100881.84;4956898;28;48399;-80
2022/06/06 10:51:58;;;;;;;;;0.00;0.00;;;;;30.05;26.79;100898.53;4978030;28;45440;-79
2022/06/06 10:54:41;;;;;;;;;0.00;0.00;;;;;29.70;27.62;100894.59;4989098;28;45514;-80
2022/06/06 10:57:55;;;;;;;;;0.00;0.00;;;;;30.46;27.97;100888.19;5014035;28;45420;-79
2022/06/06 11:00:34;;;;;;;;;0.00;0.00;;;;;30.50;26.39;100866.91;5015371;28;46757;-80
2022/06/06 11:03:12;;;;;;;;;0.00;0.00;;;;;30.90;26.65;100877.38;5017299;28;45457;-80
2022/06/06 11:06:14;;;;;;;;;1.00;1.00;;;;;31.34;25.09;100869.25;5021004;28;45781;-79
2022/06/06 11:09:03;;;;;;;;;0.00;0.00;;;;;31.85;25.76;100874.03;5005779;28;45471;-80
2022/06/06 11:11:44;;;;;;;;;0.00;0.00;;;;;32.31;24.98;100866.41;5030532;28;45402;-78
2022/06/06 11:14:28;;;;;;;;;0.00;0.00;;;;;32.18;23.69;100871.47;5036345;28;45366;-79
2022/06/06 11:17:04;;;;;;;;;0.00;0.00;;;;;32.12;24.49;100874.88;5013234;28;45501;-78
2022/06/06 11:19:52;;;;;;;;;0.00;0.00;;;;;32.21;23.99;100872.00;5011871;28;45620;-78
2022/06/06 11:22:23;;;;;;;;;0.00;0.00;;;;;32.47;23.56;100871.06;5014300;28;45455;-79
2022/06/06 11:25:13;;;;;;;;;0.00;0.00;;;;;32.42;23.02;100868.81;5013760;28;45462;-79
2022/06/06 11:27:58;;;;;;;;;0.00;0.00;;;;;32.47;22.83;100865.56;5009049;28;45571;-79
2022/06/06 11:30:42;;;;;;;;;0.00;0.00;;;;;32.70;23.14;100874.03;4995861;28;45325;-79
2022/06/06 11:33:41;;;;;;;;;0.00;0.00;;;;;32.89;21.40;100863.81;4998968;28;45438;-80
2022/06/06 11:36:26;;;;;;;;;0.00;0.00;;;;;32.65;22.06;100870.06;5026070;28;45521;-85
2022/06/06 11:39:09;;;;;;;;;0.00;0.00;;;;;32.60;21.59;100862.38;5035363;28;45586;-85
2022/06/06 11:42:03;;;;;;;;;0.00;0.00;;;;;32.69;22.55;100866.00;5028020;28;45437;-82
2022/06/06 11:44:40;;;;;;;;;1.00;0.00;;;;;32.27;22.69;100866.91;4995933;28;45640;-84
2022/06/06 11:47:08;;;;;;;;;0.00;0.00;;;;;31.88;23.33;100862.78;4998423;28;45447;-84
2022/06/06 11:50:00;;;;;;;;;1.00;0.00;;;;;31.31;22.62;100852.34;5015880;28;45475;-84
2022/06/06 11:52:50;;;;;;;;;0.25;0.00;;;;;30.67;24.23;100862.50;5016979;28;45418;-85
2022/06/06 11:55:35;;;;;;;;;0.00;0.00;;;;;30.37;24.42;100859.94;5015355;28;45724;-83
2022/06/06 11:58:18;;;;;;;;;0.00;0.00;;;;;30.11;25.14;100857.09;5006419;28;45524;-83
2022/06/06 12:00:53;;;;;;;;;0.75;0.00;;;;;29.86;25.28;100864.91;5012468;28;45440;-84
2022/06/06 12:03:52;;;;;;;;;0.75;0.25;;;;;29.64;25.14;100855.25;5037834;28;45341;-84
2022/06/06 12:06:35;;;;;;;;;0.00;0.00;;;;;29.24;27.00;100868.09;5019994;28;45525;-84
2022/06/06 12:09:13;;;;;;;;;0.00;0.00;;;;;28.95;26.43;100867.22;4997118;28;45515;-84
2022/06/06 12:12:02;;;;;;;;;0.00;0.00;;;;;28.70;28.53;100869.50;4994723;28;45377;-83
2022/06/06 12:15:08;;;;;;;;;0.00;0.00;;;;;28.58;27.68;100867.88;4996641;28;45474;-84
2022/06/06 12:17:59;;;;;;;;;0.00;0.00;;;;;28.36;28.68;100867.09;4992200;28;45624;-84
2022/06/06 12:20:24;;;;;;;;;0.00;0.00;;;;;28.08;28.50;100857.88;4994242;28;45531;-83
2022/06/06 12:23:28;;;;;;;;;2.00;0.00;;;;;27.83;28.56;100860.91;4996162;28;45485;-84
2022/06/06 12:26:19;;;;;;;;;0.00;0.00;;;;;27.66;28.81;100864.25;4994030;28;45594;-80
2022/06/06 12:29:16;;;;;;;;;1.00;1.00;;;;;27.57;29.61;100859.63;4994938;28;45600;-80
2022/06/06 12:31:58;;;;;;;;;1.00;1.00;;;;;27.64;29.48;100858.09;4919080;28;45610;-80
2022/06/06 12:34:51;;;;;;;;;0.00;0.00;;;;;27.69;29.16;100844.97;4922671;28;45450;-80
2022/06/06 12:37:30;;;;;;;;;0.00;0.00;;;;;27.94;29.24;100845.53;4911241;28;45371;-81
2022/06/06 12:40:01;;;;;;;;;0.00;0.00;;;;;28.14;29.39;100841.88;4917290;28;46323;-79
2022/06/06 12:43:04;;;;;;;;;0.75;0.00;;;;;28.24;28.89;100847.38;4916071;28;45395;-79
2022/06/06 12:45:52;;;;;;;;;1.00;0.00;;;;;28.65;28.16;100836.41;4916704;28;45514;-78